createdAt,value
2023-11-07T00:04:47.574Z,96871.06
2023-11-07T00:09:50.647Z,96874.66
2023-11-07T00:14:52.701Z,96869.72
2023-11-07T00:19:56.960Z,96867.03
2023-11-07T00:24:58.637Z,96880.72
2023-11-07T00:30:01.174Z,96880.22
2023-11-07T00:35:03.670Z,96879.09
2023-11-07T00:40:07.841Z,96891.16
2023-11-07T00:45:10.010Z,96890.06
2023-11-07T00:50:11.994Z,96901.03
2023-11-07T00:55:14.317Z,96893.38
2023-11-07T01:00:16.755Z,96899.94
2023-11-07T01:05:19.560Z,96905.97
2023-11-07T01:10:21.354Z,96911.16
2023-11-07T01:15:23.238Z,96917.19
2023-11-07T01:20:25.185Z,96920.19
2023-11-07T01:25:28.579Z,96920.75
2023-11-07T01:30:30.477Z,96920.78
2023-11-07T01:35:32.324Z,96914.19
2023-11-07T01:40:34.837Z,96914.19
2023-11-07T01:45:36.540Z,96914.19
2023-11-07T01:50:38.408Z,96901.34
2023-11-07T01:55:41.731Z,96906.53
2023-11-07T02:00:45.157Z,96898.31
2023-11-07T02:05:46.848Z,96901.59
2023-11-07T02:10:48.561Z,96905.44
2023-11-07T02:15:50.240Z,96905.41
2023-11-07T02:20:53.300Z,96899.41
2023-11-07T02:25:55.187Z,96902.16
2023-11-07T02:30:58.160Z,96897.22
2023-11-07T02:36:01.299Z,96896.69
2023-11-07T02:41:03.101Z,96897.19
2023-11-07T02:46:05.263Z,96901.56
2023-11-07T02:51:07.002Z,96901.50
2023-11-07T02:56:09.044Z,96896.25
2023-11-07T03:01:10.969Z,96891.53
2023-11-07T03:06:12.735Z,96888.16
2023-11-07T03:11:16.013Z,96887.50
2023-11-07T03:16:18.152Z,96897.22
2023-11-07T03:21:23.756Z,96901.84
2023-11-07T03:26:25.923Z,96900.94
2023-11-07T03:31:27.687Z,96894.47
2023-11-07T03:36:29.799Z,96905.22
2023-11-07T03:41:31.847Z,96899.75
2023-11-07T03:46:33.532Z,96901.25
2023-11-07T03:51:35.210Z,96907.81
2023-11-07T03:56:37.202Z,96914.16
2023-11-07T04:01:39.065Z,96913.53
2023-11-07T04:06:40.728Z,96907.66
2023-11-07T04:11:43.384Z,96916.91
2023-11-07T04:16:45.977Z,96922.66
2023-11-07T04:21:47.486Z,96928.25
2023-11-07T04:26:55.093Z,96936.97
2023-11-07T04:31:56.888Z,96928.53
2023-11-07T04:36:59.907Z,96929.56
2023-11-07T04:42:02.948Z,96929.56
2023-11-07T04:47:06.986Z,96928.34
2023-11-07T04:52:08.771Z,96930.00
2023-11-07T04:57:11.212Z,96937.31
2023-11-07T05:02:13.004Z,96944.88
2023-11-07T05:07:15.155Z,96944.81
2023-11-07T05:12:16.822Z,96944.16
2023-11-07T05:17:18.892Z,96943.66
2023-11-07T05:22:21.217Z,96944.25
2023-11-07T05:27:22.846Z,96938.09
2023-11-07T05:32:24.464Z,96939.69
2023-11-07T05:37:26.187Z,96936.97
2023-11-07T05:42:27.929Z,96943.72
2023-11-07T05:47:29.984Z,96927.72
2023-11-07T05:52:33.319Z,96931.38
2023-11-07T05:57:36.907Z,96933.16
2023-11-07T06:02:39.504Z,96928.38
2023-11-07T06:07:41.327Z,96933.91
2023-11-07T06:12:43.053Z,96942.06
2023-11-07T06:17:44.803Z,96945.84
2023-11-07T06:22:46.516Z,96950.78
2023-11-07T06:27:49.132Z,96968.66
2023-11-07T06:32:51.676Z,96966.16
2023-11-07T06:37:53.385Z,96965.44
2023-11-07T06:42:55.718Z,96960.56
2023-11-07T06:47:57.565Z,96969.63
2023-11-07T06:53:00.460Z,96964.13
2023-11-07T06:58:02.108Z,96969.69
2023-11-07T07:03:03.901Z,96966.63
2023-11-07T07:08:09.249Z,96962.47
2023-11-07T07:13:11.038Z,96958.47
2023-11-07T07:18:19.411Z,96965.25
2023-11-07T07:23:25.809Z,96976.22
2023-11-07T07:28:28.101Z,96980.38
2023-11-07T07:33:30.194Z,96968.75
2023-11-07T07:38:32.929Z,96970.31
2023-11-07T07:43:34.598Z,96965.31
2023-11-07T07:48:36.725Z,96976.69
2023-11-07T07:53:39.167Z,96979.78
2023-11-07T07:58:42.454Z,96982.34
2023-11-07T08:03:44.803Z,96971.03
2023-11-07T08:08:47.058Z,96969.47
2023-11-07T08:13:49.026Z,96986.75
2023-11-07T08:18:50.734Z,96980.78
2023-11-07T08:23:52.598Z,96973.66
2023-11-07T08:28:54.237Z,96988.97
2023-11-07T08:33:57.660Z,96978.06
2023-11-07T08:38:59.468Z,96977.78
2023-11-07T08:44:01.117Z,96980.84
2023-11-07T08:49:02.962Z,96985.81
2023-11-07T08:54:04.701Z,96983.09
2023-11-07T08:59:08.750Z,96984.22
2023-11-07T09:04:10.882Z,96991.31
2023-11-07T09:09:16.564Z,96989.97
2023-11-07T09:14:20.065Z,96997.38
2023-11-07T09:19:21.929Z,96994.13
2023-11-07T09:24:24.079Z,96996.00
2023-11-07T09:29:25.839Z,96989.16
2023-11-07T09:34:27.647Z,96985.03
2023-11-07T09:39:29.386Z,96987.19
2023-11-07T09:44:31.518Z,96991.53
2023-11-07T09:49:34.059Z,96986.31
2023-11-07T09:54:38.181Z,96982.97
2023-11-07T09:59:45.704Z,96979.03
2023-11-07T10:04:49.728Z,96973.53
2023-11-07T10:09:51.501Z,96972.59
2023-11-07T10:14:53.665Z,96973.38
2023-11-07T10:20:12.411Z,96974.41
2023-11-07T10:25:27.509Z,96971.13
2023-11-07T10:30:36.786Z,96958.78
2023-11-07T10:35:55.809Z,96963.69
2023-11-07T10:40:57.994Z,96950.13
2023-11-07T10:46:06.306Z,96949.75
2023-11-07T10:51:09.910Z,96951.09
2023-11-07T10:56:11.684Z,96946.69
2023-11-07T11:01:14.521Z,96939.50
2023-11-07T11:06:17.622Z,96937.34
2023-11-07T11:11:20.523Z,96936.75
2023-11-07T11:16:22.505Z,96934.59
2023-11-07T11:21:39.393Z,96932.97
2023-11-07T11:26:48.424Z,96920.72
2023-11-07T11:31:50.135Z,96915.72
2023-11-07T11:36:58.069Z,96918.47
2023-11-07T11:42:01.710Z,96922.34
2023-11-07T11:47:04.641Z,96914.63
2023-11-07T11:52:26.762Z,96914.63
2023-11-07T11:57:28.734Z,96911.88
2023-11-07T12:02:38.342Z,96917.06
2023-11-07T12:07:40.854Z,96904.69
2023-11-07T12:12:42.914Z,96908.47
2023-11-07T12:17:44.934Z,96901.00
2023-11-07T12:22:47.808Z,96898.44
2023-11-07T12:28:07.040Z,96897.28
2023-11-07T12:33:11.005Z,96895.28
2023-11-07T12:38:14.754Z,96896.69
2023-11-07T12:43:16.600Z,96895.13
2023-11-07T12:48:25.537Z,96894.91
2023-11-07T12:53:27.611Z,96892.47
2023-11-07T12:58:30.744Z,96891.88
2023-11-07T13:03:33.860Z,96888.63
2023-11-07T13:08:38.394Z,96883.41
2023-11-07T13:13:41.015Z,96882.16
2023-11-07T13:18:50.138Z,96885.22
2023-11-07T13:23:52.961Z,96889.38
2023-11-07T13:28:56.243Z,96892.75
2023-11-07T13:33:58.223Z,96888.34
2023-11-07T13:39:00.075Z,96887.34
2023-11-07T13:44:03.313Z,96881.56
2023-11-07T13:49:05.489Z,96883.91
2023-11-07T13:54:09.454Z,96873.38
2023-11-07T13:59:13.878Z,96860.66
2023-11-07T14:04:15.959Z,96872.41
2023-11-07T14:09:18.149Z,96870.13
2023-11-07T14:14:21.201Z,96873.63
2023-11-07T14:19:23.402Z,96865.63
2023-11-07T14:24:27.107Z,96876.34
2023-11-07T14:29:45.481Z,96864.75
2023-11-07T14:34:52.530Z,96858.78
2023-11-07T14:39:55.358Z,96864.88
2023-11-07T14:44:57.156Z,96858.56
2023-11-07T14:49:59.901Z,96858.38
2023-11-07T14:55:01.895Z,96858.03
2023-11-07T15:00:06.045Z,96861.06
2023-11-07T15:05:10.026Z,96858.56
2023-11-07T15:10:14.451Z,96864.69
2023-11-07T15:15:16.623Z,96868.56
2023-11-07T15:20:18.630Z,96870.66
2023-11-07T15:25:20.669Z,96868.78
2023-11-07T15:30:22.393Z,96878.75
2023-11-07T15:35:25.431Z,96893.06
2023-11-07T15:40:27.135Z,96908.66
2023-11-07T15:45:32.239Z,96911.38
2023-11-07T15:50:35.731Z,96906.81
2023-11-07T15:55:38.488Z,96912.91
2023-11-07T16:00:40.597Z,96916.75
2023-11-07T16:05:42.989Z,96912.44
2023-11-07T16:10:46.244Z,96919.50
2023-11-07T16:15:47.860Z,96912.63
2023-11-07T16:20:52.677Z,96912.88
2023-11-07T16:25:54.428Z,96916.66
2023-11-07T16:30:57.736Z,96917.72
2023-11-07T16:35:59.436Z,96927.06
2023-11-07T16:41:01.862Z,96922.72
2023-11-07T16:46:03.473Z,96927.66
2023-11-07T16:51:05.300Z,96925.47
2023-11-07T16:56:07.841Z,96922.75
2023-11-07T17:01:09.672Z,96933.75
2023-11-07T17:06:11.507Z,96932.44
2023-11-07T17:11:14.673Z,96953.56
2023-11-07T17:16:17.250Z,96988.34
2023-11-07T17:21:19.504Z,96995.75
2023-11-07T17:26:21.500Z,97003.66
2023-11-07T17:31:23.301Z,96992.97
2023-11-07T17:36:25.034Z,97007.75
2023-11-07T17:41:27.032Z,97001.22
2023-11-07T17:46:29.168Z,97009.38
2023-11-07T17:51:31.239Z,97015.91
2023-11-07T17:56:34.129Z,97011.00
2023-11-07T18:01:36.531Z,97026.31
2023-11-07T18:06:41.215Z,97027.34
2023-11-07T18:11:46.166Z,97039.88
2023-11-07T18:16:47.870Z,97041.19
2023-11-07T18:21:49.886Z,97059.41
2023-11-07T18:26:52.750Z,97062.09
2023-11-07T18:31:54.887Z,97059.88
2023-11-07T18:37:00.655Z,97063.78
2023-11-07T18:42:03.075Z,97059.44
2023-11-07T18:47:04.985Z,97066.88
2023-11-07T18:52:07.155Z,97063.94
2023-11-07T18:57:13.860Z,97064.78
2023-11-07T19:02:16.395Z,97069.16
2023-11-07T19:07:18.254Z,97076.56
2023-11-07T19:12:20.090Z,97084.19
2023-11-07T19:17:23.488Z,97089.41
2023-11-07T19:22:25.316Z,97097.88
2023-11-07T19:27:27.797Z,97095.66
2023-11-07T19:32:29.807Z,97100.03
2023-11-07T19:37:31.507Z,97107.13
2023-11-07T19:42:35.297Z,97109.25
2023-11-07T19:47:37.002Z,97110.63
2023-11-07T19:52:39.018Z,97110.31
2023-11-07T19:57:43.660Z,97121.47
2023-11-07T20:02:45.831Z,97126.91
2023-11-07T20:07:55.497Z,97137.81
2023-11-07T20:12:59.027Z,97151.22
2023-11-07T20:18:01.042Z,97151.16
2023-11-07T20:23:02.982Z,97147.28
2023-11-07T20:28:04.899Z,97147.28
2023-11-07T20:33:07.166Z,97146.69
2023-11-07T20:38:09.150Z,97143.91
2023-11-07T20:43:10.853Z,97149.31
2023-11-07T20:48:12.828Z,97156.38
2023-11-07T20:53:14.565Z,97157.09
2023-11-07T20:58:16.545Z,97170.94
2023-11-07T21:03:18.196Z,97170.53
2023-11-07T21:08:20.029Z,97174.53
2023-11-07T21:13:21.777Z,97170.31
2023-11-07T21:18:24.694Z,97179.84
2023-11-07T21:23:26.429Z,97171.22
2023-11-07T21:28:28.237Z,97176.75
2023-11-07T21:33:30.149Z,97178.97
2023-11-07T21:38:32.765Z,97184.06
2023-11-07T21:43:34.488Z,97187.09
2023-11-07T21:48:36.273Z,97195.84
2023-11-07T21:53:37.943Z,97196.88
2023-11-07T21:58:42.944Z,97192.03
2023-11-07T22:03:47.128Z,97202.84
2023-11-07T22:08:48.838Z,97207.69
2023-11-07T22:13:50.615Z,97211.56
2023-11-07T22:18:52.823Z,97197.28
2023-11-07T22:23:55.165Z,97213.97
2023-11-07T22:28:58.048Z,97218.47
2023-11-07T22:34:00.009Z,97217.25
2023-11-07T22:39:02.042Z,97220.44
2023-11-07T22:44:03.842Z,97226.84
2023-11-07T22:49:05.620Z,97238.25
2023-11-07T22:54:07.447Z,97240.38
2023-11-07T22:59:09.084Z,97243.78
2023-11-07T23:04:10.845Z,97244.00
2023-11-07T23:09:12.890Z,97243.91
2023-11-07T23:14:14.804Z,97246.13
2023-11-07T23:19:16.726Z,97246.25
2023-11-07T23:24:18.529Z,97242.50
2023-11-07T23:29:21.508Z,97238.72
2023-11-07T23:34:23.208Z,97240.22
2023-11-07T23:39:25.572Z,97239.03
2023-11-07T23:44:28.087Z,97246.75
2023-11-07T23:49:29.883Z,97247.88
2023-11-07T23:54:34.974Z,97250.44
2023-11-07T23:59:36.901Z,97247.47
